sensor_id;sensor_type;location;lat;lon;timestamp;pressure;altitude;pressure_sealevel;temperature;humidity
84764;BME280;74992;51.072;6.088;2024-02-26T00:01:02;99514.88;;;6.53;77.78
84764;BME280;74992;51.072;6.088;2024-02-26T00:04:04;99507.19;;;6.49;78.25
84764;BME280;74992;51.072;6.088;2024-02-26T00:07:05;99500.34;;;6.46;78.35
84764;BME280;74992;51.072;6.088;2024-02-26T00:10:07;99497.78;;;6.52;77.70
84764;BME280;74992;51.072;6.088;2024-02-26T00:13:09;99492.66;;;6.57;78.34
84764;BME280;74992;51.072;6.088;2024-02-26T00:16:10;99495.22;;;6.48;79.34
84764;BME280;74992;51.072;6.088;2024-02-26T00:19:11;99505.47;;;6.41;79.89
84764;BME280;74992;51.072;6.088;2024-02-26T00:22:13;99496.91;;;6.36;79.54
84764;BME280;74992;51.072;6.088;2024-02-26T00:25:15;99494.34;;;6.36;80.08
84764;BME280;74992;51.072;6.088;2024-02-26T00:28:16;99490.09;;;6.29;80.09
84764;BME280;74992;51.072;6.088;2024-02-26T00:31:20;99487.53;;;6.29;81.00
84764;BME280;74992;51.072;6.088;2024-02-26T00:34:21;99493.53;;;6.25;80.92
84764;BME280;74992;51.072;6.088;2024-02-26T00:37:23;99498.63;;;6.21;82.11
84764;BME280;74992;51.072;6.088;2024-02-26T00:40:24;99491.78;;;6.24;81.97
84764;BME280;74992;51.072;6.088;2024-02-26T00:43:26;99486.66;;;6.23;82.14
84764;BME280;74992;51.072;6.088;2024-02-26T00:46:27;99480.72;;;6.18;82.19
84764;BME280;74992;51.072;6.088;2024-02-26T00:49:29;99484.13;;;6.17;82.31
84764;BME280;74992;51.072;6.088;2024-02-26T00:52:30;99484.97;;;6.14;82.11
84764;BME280;74992;51.072;6.088;2024-02-26T00:55:32;99482.41;;;6.14;83.40
84764;BME280;74992;51.072;6.088;2024-02-26T00:58:36;99481.56;;;6.18;83.16
84764;BME280;74992;51.072;6.088;2024-02-26T01:01:37;99484.97;;;6.11;83.29
84764;BME280;74992;51.072;6.088;2024-02-26T01:04:39;99482.41;;;6.08;84.95
84764;BME280;74992;51.072;6.088;2024-02-26T01:07:40;99483.25;;;6.05;84.68
84764;BME280;74992;51.072;6.088;2024-02-26T01:10:42;99487.50;;;6.00;85.37
84764;BME280;74992;51.072;6.088;2024-02-26T01:13:43;99482.38;;;5.91;85.91
84764;BME280;74992;51.072;6.088;2024-02-26T01:16:44;99484.09;;;5.92;86.72
84764;BME280;74992;51.072;6.088;2024-02-26T01:19:46;99480.66;;;5.90;86.47
84764;BME280;74992;51.072;6.088;2024-02-26T01:22:47;99489.16;;;5.89;86.08
84764;BME280;74992;51.072;6.088;2024-02-26T01:25:49;99489.16;;;5.80;87.17
84764;BME280;74992;51.072;6.088;2024-02-26T01:28:51;99488.31;;;5.79;88.18
84764;BME280;74992;51.072;6.088;2024-02-26T01:31:55;99478.03;;;5.78;88.58
84764;BME280;74992;51.072;6.088;2024-02-26T01:34:56;99480.59;;;5.76;88.19
84764;BME280;74992;51.072;6.088;2024-02-26T01:37:58;99479.75;;;5.71;88.14
84764;BME280;74992;51.072;6.088;2024-02-26T01:41:00;99475.47;;;5.72;88.78
84764;BME280;74992;51.072;6.088;2024-02-26T01:44:01;99472.03;;;5.65;88.73
84764;BME280;74992;51.072;6.088;2024-02-26T01:47:04;99470.34;;;5.58;89.72
84764;BME280;74992;51.072;6.088;2024-02-26T01:50:06;99473.75;;;5.59;90.08
84764;BME280;74992;51.072;6.088;2024-02-26T01:53:09;99477.16;;;5.62;89.09
84764;BME280;74992;51.072;6.088;2024-02-26T01:56:11;99475.44;;;5.63;89.11
84764;BME280;74992;51.072;6.088;2024-02-26T01:59:13;99481.44;;;5.69;89.04
84764;BME280;74992;51.072;6.088;2024-02-26T02:02:15;99477.19;;;5.68;88.48
84764;BME280;74992;51.072;6.088;2024-02-26T02:05:17;99476.34;;;5.71;88.30
84764;BME280;74992;51.072;6.088;2024-02-26T02:08:19;99475.47;;;5.70;89.19
84764;BME280;74992;51.072;6.088;2024-02-26T02:11:21;99479.75;;;5.70;88.86
84764;BME280;74992;51.072;6.088;2024-02-26T02:14:22;99475.44;;;5.67;89.04
84764;BME280;74992;51.072;6.088;2024-02-26T02:17:24;99472.88;;;5.66;89.57
84764;BME280;74992;51.072;6.088;2024-02-26T02:20:31;99471.19;;;5.63;89.43
84764;BME280;74992;51.072;6.088;2024-02-26T02:23:34;99476.34;;;5.68;89.42
84764;BME280;74992;51.072;6.088;2024-02-26T02:26:35;99478.03;;;5.70;89.67
84764;BME280;74992;51.072;6.088;2024-02-26T02:29:37;99469.47;;;5.67;89.76
84764;BME280;74992;51.072;6.088;2024-02-26T02:32:40;99469.47;;;5.61;89.90
84764;BME280;74992;51.072;6.088;2024-02-26T02:35:42;99466.06;;;5.63;90.03
84764;BME280;74992;51.072;6.088;2024-02-26T02:38:50;99478.00;;;5.66;90.27
84764;BME280;74992;51.072;6.088;2024-02-26T02:41:52;99472.88;;;5.61;90.44
84764;BME280;74992;51.072;6.088;2024-02-26T02:44:53;99474.59;;;5.62;90.24
84764;BME280;74992;51.072;6.088;2024-02-26T02:47:55;99472.03;;;5.67;89.92
84764;BME280;74992;51.072;6.088;2024-02-26T02:50:56;99467.81;;;5.72;89.23
84764;BME280;74992;51.072;6.088;2024-02-26T02:53:58;99468.66;;;5.77;89.75
84764;BME280;74992;51.072;6.088;2024-02-26T02:57:01;99466.09;;;5.72;90.01
84764;BME280;74992;51.072;6.088;2024-02-26T03:00:03;99466.94;;;5.74;90.43
84764;BME280;74992;51.072;6.088;2024-02-26T03:03:05;99470.34;;;5.76;89.99
84764;BME280;74992;51.072;6.088;2024-02-26T03:06:06;99462.72;;;5.81;89.77
84764;BME280;74992;51.072;6.088;2024-02-26T03:09:08;99472.09;;;5.80;90.38
84764;BME280;74992;51.072;6.088;2024-02-26T03:12:09;99472.91;;;5.78;90.81
84764;BME280;74992;51.072;6.088;2024-02-26T03:15:11;99470.38;;;5.79;90.76
84764;BME280;74992;51.072;6.088;2024-02-26T03:18:13;99471.22;;;5.78;91.10
84764;BME280;74992;51.072;6.088;2024-02-26T03:21:14;99475.50;;;5.81;90.38
84764;BME280;74992;51.072;6.088;2024-02-26T03:24:16;99469.53;;;5.88;90.16
84764;BME280;74992;51.072;6.088;2024-02-26T03:27:17;99480.63;;;5.85;90.55
84764;BME280;74992;51.072;6.088;2024-02-26T03:30:19;99475.50;;;5.79;90.26
84764;BME280;74992;51.072;6.088;2024-02-26T03:33:20;99472.09;;;5.82;91.06
84764;BME280;74992;51.072;6.088;2024-02-26T03:36:22;99478.06;;;5.81;91.23
84764;BME280;74992;51.072;6.088;2024-02-26T03:39:23;99470.38;;;5.81;90.26
84764;BME280;74992;51.072;6.088;2024-02-26T03:42:25;99470.38;;;5.79;91.34
84764;BME280;74992;51.072;6.088;2024-02-26T03:45:26;99478.06;;;5.81;91.44
84764;BME280;74992;51.072;6.088;2024-02-26T03:48:28;99470.34;;;5.70;92.15
84764;BME280;74992;51.072;6.088;2024-02-26T03:51:29;99478.84;;;5.63;92.07
84764;BME280;74992;51.072;6.088;2024-02-26T03:54:32;99471.19;;;5.63;91.85
84764;BME280;74992;51.072;6.088;2024-02-26T03:57:34;99467.78;;;5.64;91.91
84764;BME280;74992;51.072;6.088;2024-02-26T04:00:36;99480.56;;;5.63;92.57
84764;BME280;74992;51.072;6.088;2024-02-26T04:03:38;99481.41;;;5.60;91.63
84764;BME280;74992;51.072;6.088;2024-02-26T04:06:39;99478.00;;;5.58;92.19
84764;BME280;74992;51.072;6.088;2024-02-26T04:09:41;99488.25;;;5.61;91.69
84764;BME280;74992;51.072;6.088;2024-02-26T04:12:43;99474.59;;;5.61;91.60
84764;BME280;74992;51.072;6.088;2024-02-26T04:15:44;99484.84;;;5.59;91.66
84764;BME280;74992;51.072;6.088;2024-02-26T04:18:46;99481.41;;;5.60;91.96
84764;BME280;74992;51.072;6.088;2024-02-26T04:21:50;99466.06;;;5.59;91.77
84764;BME280;74992;51.072;6.088;2024-02-26T04:24:51;99476.31;;;5.60;93.07
84764;BME280;74992;51.072;6.088;2024-02-26T04:27:54;99483.13;;;5.58;92.50
84764;BME280;74992;51.072;6.088;2024-02-26T04:30:56;99481.41;;;5.57;91.86
84764;BME280;74992;51.072;6.088;2024-02-26T04:33:57;99477.16;;;5.62;91.84
84764;BME280;74992;51.072;6.088;2024-02-26T04:36:59;99486.53;;;5.63;92.23
84764;BME280;74992;51.072;6.088;2024-02-26T04:40:00;99492.50;;;5.62;91.77
84764;BME280;74992;51.072;6.088;2024-02-26T04:43:04;99495.91;;;5.58;91.90
84764;BME280;74992;51.072;6.088;2024-02-26T04:46:05;99501.03;;;5.61;92.15
84764;BME280;74992;51.072;6.088;2024-02-26T04:49:08;99505.31;;;5.62;91.87
84764;BME280;74992;51.072;6.088;2024-02-26T04:52:09;99501.88;;;5.65;91.80
84764;BME280;74992;51.072;6.088;2024-02-26T04:55:11;99509.56;;;5.63;92.68
84764;BME280;74992;51.072;6.088;2024-02-26T04:58:12;99504.44;;;5.63;92.21
84764;BME280;74992;51.072;6.088;2024-02-26T05:01:15;99507.00;;;5.63;92.17
84764;BME280;74992;51.072;6.088;2024-02-26T05:04:17;99512.97;;;5.64;91.72
84764;BME280;74992;51.072;6.088;2024-02-26T05:07:19;99513.78;;;5.52;91.45
84764;BME280;74992;51.072;6.088;2024-02-26T05:10:20;99522.31;;;5.46;92.29
84764;BME280;74992;51.072;6.088;2024-02-26T05:13:22;99517.16;;;5.42;92.78
84764;BME280;74992;51.072;6.088;2024-02-26T05:16:23;99508.63;;;5.37;92.46
84764;BME280;74992;51.072;6.088;2024-02-26T05:19:27;99518.00;;;5.35;92.55
84764;BME280;74992;51.072;6.088;2024-02-26T05:22:28;99516.25;;;5.29;93.17
84764;BME280;74992;51.072;6.088;2024-02-26T05:25:31;99532.44;;;5.26;93.67
84764;BME280;74992;51.072;6.088;2024-02-26T05:28:33;99533.28;;;5.24;94.17
84764;BME280;74992;51.072;6.088;2024-02-26T05:31:34;99534.13;;;5.21;93.99
84764;BME280;74992;51.072;6.088;2024-02-26T05:34:36;99539.22;;;5.20;93.91
84764;BME280;74992;51.072;6.088;2024-02-26T05:37:38;99539.22;;;5.20;93.49
84764;BME280;74992;51.072;6.088;2024-02-26T05:40:39;99545.22;;;5.23;92.83
84764;BME280;74992;51.072;6.088;2024-02-26T05:43:42;99554.59;;;5.21;93.34
84764;BME280;74992;51.072;6.088;2024-02-26T05:46:44;99555.41;;;5.19;93.50
84764;BME280;74992;51.072;6.088;2024-02-26T05:49:45;99559.66;;;5.18;93.56
84764;BME280;74992;51.072;6.088;2024-02-26T05:52:47;99558.88;;;5.22;93.06
84764;BME280;74992;51.072;6.088;2024-02-26T05:55:48;99558.81;;;5.15;93.97
84764;BME280;74992;51.072;6.088;2024-02-26T05:58:50;99568.16;;;5.10;93.67
84764;BME280;74992;51.072;6.088;2024-02-26T06:01:51;99568.16;;;5.11;93.43
84764;BME280;74992;51.072;6.088;2024-02-26T06:04:53;99574.13;;;5.12;93.47
84764;BME280;74992;51.072;6.088;2024-02-26T06:07:54;99581.81;;;5.13;92.90
84764;BME280;74992;51.072;6.088;2024-02-26T06:10:56;99580.94;;;5.10;93.10
84764;BME280;74992;51.072;6.088;2024-02-26T06:13:57;99583.50;;;5.11;93.72
84764;BME280;74992;51.072;6.088;2024-02-26T06:16:59;99592.88;;;5.12;93.88
84764;BME280;74992;51.072;6.088;2024-02-26T06:20:01;99582.66;;;5.12;94.47
84764;BME280;74992;51.072;6.088;2024-02-26T06:23:04;99585.22;;;5.12;94.17
84764;BME280;74992;51.072;6.088;2024-02-26T06:26:06;99595.44;;;5.12;93.23
84764;BME280;74992;51.072;6.088;2024-02-26T06:29:07;99603.97;;;5.13;94.15
84764;BME280;74992;51.072;6.088;2024-02-26T06:32:09;99599.72;;;5.15;93.90
84764;BME280;74992;51.072;6.088;2024-02-26T06:35:10;99605.69;;;5.15;93.27
84764;BME280;74992;51.072;6.088;2024-02-26T06:38:12;99604.88;;;5.21;93.74
84764;BME280;74992;51.072;6.088;2024-02-26T06:41:14;99602.28;;;5.15;93.46
84764;BME280;74992;51.072;6.088;2024-02-26T06:44:15;99604.84;;;5.16;92.83
84764;BME280;74992;51.072;6.088;2024-02-26T06:47:17;99607.38;;;5.13;94.05
84764;BME280;74992;51.072;6.088;2024-02-26T06:50:19;99618.47;;;5.12;93.61
84764;BME280;74992;51.072;6.088;2024-02-26T06:53:22;99619.31;;;5.11;94.60
84764;BME280;74992;51.072;6.088;2024-02-26T06:56:24;99625.28;;;5.10;94.36
84764;BME280;74992;51.072;6.088;2024-02-26T06:59:25;99624.41;;;5.11;93.64
84764;BME280;74992;51.072;6.088;2024-02-26T07:02:27;99614.97;;;5.03;94.31
84764;BME280;74992;51.072;6.088;2024-02-26T07:05:28;99626.91;;;5.05;95.01
84764;BME280;74992;51.072;6.088;2024-02-26T07:08:30;99623.53;;;5.08;94.15
84764;BME280;74992;51.072;6.088;2024-02-26T07:11:33;99617.53;;;5.04;94.83
84764;BME280;74992;51.072;6.088;2024-02-26T07:14:34;99632.88;;;5.04;93.98
84764;BME280;74992;51.072;6.088;2024-02-26T07:17:37;99634.56;;;5.01;94.85
84764;BME280;74992;51.072;6.088;2024-02-26T07:20:41;99649.91;;;5.01;94.82
84764;BME280;74992;51.072;6.088;2024-02-26T07:23:43;99641.38;;;5.00;94.49
84764;BME280;74992;51.072;6.088;2024-02-26T07:26:44;99642.25;;;5.07;94.87
84764;BME280;74992;51.072;6.088;2024-02-26T07:29:46;99655.03;;;5.02;95.07
84764;BME280;74992;51.072;6.088;2024-02-26T07:32:48;99659.28;;;5.03;95.13
84764;BME280;74992;51.072;6.088;2024-02-26T07:35:49;99661.09;;;5.15;93.95
84764;BME280;74992;51.072;6.088;2024-02-26T07:38:51;99661.06;;;5.10;95.13
84764;BME280;74992;51.072;6.088;2024-02-26T07:41:54;99662.78;;;5.10;94.34
84764;BME280;74992;51.072;6.088;2024-02-26T07:44:57;99660.16;;;5.08;93.85
84764;BME280;74992;51.072;6.088;2024-02-26T07:47:58;99661.03;;;5.09;94.47
84764;BME280;74992;51.072;6.088;2024-02-26T07:51:00;99666.19;;;5.10;93.40
84764;BME280;74992;51.072;6.088;2024-02-26T07:54:03;99671.31;;;5.16;94.40
84764;BME280;74992;51.072;6.088;2024-02-26T07:57:05;99678.16;;;5.16;93.86
84764;BME280;74992;51.072;6.088;2024-02-26T08:00:07;99677.28;;;5.17;94.51
84764;BME280;74992;51.072;6.088;2024-02-26T08:03:09;99681.56;;;5.19;93.53
84764;BME280;74992;51.072;6.088;2024-02-26T08:06:12;99675.59;;;5.17;93.60
84764;BME280;74992;51.072;6.088;2024-02-26T08:09:13;99680.72;;;5.20;93.80
84764;BME280;74992;51.072;6.088;2024-02-26T08:12:15;99689.28;;;5.24;93.16
84764;BME280;74992;51.072;6.088;2024-02-26T08:15:16;99688.47;;;5.30;93.78
84764;BME280;74992;51.072;6.088;2024-02-26T08:18:18;99685.97;;;5.33;93.19
84764;BME280;74992;51.072;6.088;2024-02-26T08:21:21;99693.63;;;5.33;93.24
84764;BME280;74992;51.072;6.088;2024-02-26T08:24:24;99704.69;;;5.32;93.17
84764;BME280;74992;51.072;6.088;2024-02-26T08:27:25;99706.38;;;5.31;93.50
84764;BME280;74992;51.072;6.088;2024-02-26T08:30:27;99710.66;;;5.32;93.04
84764;BME280;74992;51.072;6.088;2024-02-26T08:33:30;99719.22;;;5.34;92.82
84764;BME280;74992;51.072;6.088;2024-02-26T08:36:34;99719.22;;;5.34;92.45
84764;BME280;74992;51.072;6.088;2024-02-26T08:39:35;99725.13;;;5.28;92.82
84764;BME280;74992;51.072;6.088;2024-02-26T08:42:37;99729.38;;;5.28;93.85
84764;BME280;74992;51.072;6.088;2024-02-26T08:45:38;99725.97;;;5.29;93.36
84764;BME280;74992;51.072;6.088;2024-02-26T08:48:40;99724.28;;;5.28;93.50
84764;BME280;74992;51.072;6.088;2024-02-26T08:51:44;99721.69;;;5.23;93.28
84764;BME280;74992;51.072;6.088;2024-02-26T08:54:46;99725.13;;;5.27;94.42
84764;BME280;74992;51.072;6.088;2024-02-26T08:57:47;99730.22;;;5.27;94.42
84764;BME280;74992;51.072;6.088;2024-02-26T09:00:49;99736.19;;;5.26;93.87
84764;BME280;74992;51.072;6.088;2024-02-26T09:03:50;99739.63;;;5.31;93.83
84764;BME280;74992;51.072;6.088;2024-02-26T09:06:52;99742.19;;;5.30;93.91
84764;BME280;74992;51.072;6.088;2024-02-26T09:09:54;99756.75;;;5.35;93.62
84764;BME280;74992;51.072;6.088;2024-02-26T09:12:56;99755.06;;;5.39;93.85
84764;BME280;74992;51.072;6.088;2024-02-26T09:15:59;99758.47;;;5.41;93.44
84764;BME280;74992;51.072;6.088;2024-02-26T09:19:01;99768.72;;;5.42;93.76
84764;BME280;74992;51.072;6.088;2024-02-26T09:22:03;99773.88;;;5.45;93.01
84764;BME280;74992;51.072;6.088;2024-02-26T09:25:06;99770.41;;;5.40;93.92
84764;BME280;74992;51.072;6.088;2024-02-26T09:28:07;99767.88;;;5.43;93.64
84764;BME280;74992;51.072;6.088;2024-02-26T09:31:09;99777.28;;;5.44;93.50
84764;BME280;74992;51.072;6.088;2024-02-26T09:34:10;99777.31;;;5.47;94.00
84764;BME280;74992;51.072;6.088;2024-02-26T09:37:12;99795.22;;;5.46;93.79
84764;BME280;74992;51.072;6.088;2024-02-26T09:40:14;99793.53;;;5.51;93.55
84764;BME280;74992;51.072;6.088;2024-02-26T09:43:21;99798.66;;;5.54;93.36
84764;BME280;74992;51.072;6.088;2024-02-26T09:46:25;99800.44;;;5.61;93.63
84764;BME280;74992;51.072;6.088;2024-02-26T09:49:26;99806.41;;;5.62;93.36
84764;BME280;74992;51.072;6.088;2024-02-26T09:52:30;99805.56;;;5.58;93.92
84764;BME280;74992;51.072;6.088;2024-02-26T09:55:34;99813.25;;;5.64;93.56
84764;BME280;74992;51.072;6.088;2024-02-26T09:58:39;99815.88;;;5.70;93.08
84764;BME280;74992;51.072;6.088;2024-02-26T10:01:44;99818.38;;;5.66;93.26
84764;BME280;74992;51.072;6.088;2024-02-26T10:04:47;99824.44;;;5.74;93.24
84764;BME280;74992;51.072;6.088;2024-02-26T10:07:54;99827.94;;;5.83;93.60
84764;BME280;74992;51.072;6.088;2024-02-26T10:10:57;99835.59;;;5.83;93.17
84764;BME280;74992;51.072;6.088;2024-02-26T10:13:59;99845.84;;;5.82;93.49
84764;BME280;74992;51.072;6.088;2024-02-26T10:17:00;99845.84;;;5.83;93.46
84764;BME280;74992;51.072;6.088;2024-02-26T10:20:16;99858.56;;;5.73;93.17
84764;BME280;74992;51.072;6.088;2024-02-26T10:23:18;99864.44;;;5.66;93.57
84764;BME280;74992;51.072;6.088;2024-02-26T10:26:20;99861.03;;;5.62;93.90
84764;BME280;74992;51.072;6.088;2024-02-26T10:29:23;99872.94;;;5.60;94.01
84764;BME280;74992;51.072;6.088;2024-02-26T10:32:25;99874.66;;;5.61;95.23
84764;BME280;74992;51.072;6.088;2024-02-26T10:35:27;99879.81;;;5.67;93.95
84764;BME280;74992;51.072;6.088;2024-02-26T10:38:29;99877.25;;;5.66;94.31
84764;BME280;74992;51.072;6.088;2024-02-26T10:41:32;99885.78;;;5.65;94.62
84764;BME280;74992;51.072;6.088;2024-02-26T10:44:34;99889.19;;;5.67;94.29
84764;BME280;74992;51.072;6.088;2024-02-26T10:47:36;99891.00;;;5.75;94.11
84764;BME280;74992;51.072;6.088;2024-02-26T10:50:38;99896.97;;;5.77;93.82
84764;BME280;74992;51.072;6.088;2024-02-26T10:53:40;99899.59;;;5.82;93.58
84764;BME280;74992;51.072;6.088;2024-02-26T10:56:46;99901.34;;;5.88;93.25
84764;BME280;74992;51.072;6.088;2024-02-26T10:59:51;99911.59;;;5.89;93.67
84764;BME280;74992;51.072;6.088;2024-02-26T11:02:56;99909.97;;;5.94;93.08
84764;BME280;74992;51.072;6.088;2024-02-26T11:06:01;99919.34;;;5.91;92.35
84764;BME280;74992;51.072;6.088;2024-02-26T11:09:05;99923.56;;;5.90;92.68
84764;BME280;74992;51.072;6.088;2024-02-26T11:12:08;99925.34;;;5.94;93.34
84764;BME280;74992;51.072;6.088;2024-02-26T11:15:13;99933.97;;;6.04;92.68
84764;BME280;74992;51.072;6.088;2024-02-26T11:18:15;99939.09;;;6.07;92.94
84764;BME280;74992;51.072;6.088;2024-02-26T11:21:17;99937.38;;;6.04;92.42
84764;BME280;74992;51.072;6.088;2024-02-26T11:24:22;99938.16;;;5.99;92.70
84764;BME280;74992;51.072;6.088;2024-02-26T11:27:27;99944.22;;;6.05;92.66
84764;BME280;74992;51.072;6.088;2024-02-26T11:30:35;99945.09;;;6.09;93.22
84764;BME280;74992;51.072;6.088;2024-02-26T11:33:40;99946.81;;;6.11;92.00
84764;BME280;74992;51.072;6.088;2024-02-26T11:36:42;99947.72;;;6.15;92.95
84764;BME280;74992;51.072;6.088;2024-02-26T11:39:45;99952.03;;;6.21;92.85
84764;BME280;74992;51.072;6.088;2024-02-26T11:42:47;99939.22;;;6.21;92.50
84764;BME280;74992;51.072;6.088;2024-02-26T11:45:49;99946.09;;;6.26;92.18
84764;BME280;74992;51.072;6.088;2024-02-26T11:49:02;99951.25;;;6.34;92.49
84764;BME280;74992;51.072;6.088;2024-02-26T11:52:08;99957.31;;;6.42;92.47
84764;BME280;74992;51.072;6.088;2024-02-26T11:55:10;99959.09;;;6.49;93.07
84764;BME280;74992;51.072;6.088;2024-02-26T11:58:11;99954.00;;;6.58;92.63
84764;BME280;74992;51.072;6.088;2024-02-26T12:04:43;99966.00;;;6.61;91.98
84764;BME280;74992;51.072;6.088;2024-02-26T12:07:46;99966.88;;;6.64;92.08
84764;BME280;74992;51.072;6.088;2024-02-26T12:10:48;99977.06;;;6.57;92.33
84764;BME280;74992;51.072;6.088;2024-02-26T12:13:50;99971.09;;;6.56;92.33
84764;BME280;74992;51.072;6.088;2024-02-26T12:16:51;99975.31;;;6.50;92.27
84764;BME280;74992;51.072;6.088;2024-02-26T12:19:53;99981.25;;;6.46;92.22
84764;BME280;74992;51.072;6.088;2024-02-26T12:22:56;99978.66;;;6.38;90.55
84764;BME280;74992;51.072;6.088;2024-02-26T12:26:01;99983.72;;;6.33;92.96
84764;BME280;74992;51.072;6.088;2024-02-26T12:29:03;99987.97;;;6.30;92.72
84764;BME280;74992;51.072;6.088;2024-02-26T12:32:05;99993.94;;;6.26;93.19
84764;BME280;74992;51.072;6.088;2024-02-26T12:35:07;99998.22;;;6.31;92.99
84764;BME280;74992;51.072;6.088;2024-02-26T12:38:08;99999.91;;;6.26;92.86
84764;BME280;74992;51.072;6.088;2024-02-26T12:41:11;100007.56;;;6.25;92.48
84764;BME280;74992;51.072;6.088;2024-02-26T12:44:13;100019.50;;;6.24;92.61
84764;BME280;74992;51.072;6.088;2024-02-26T12:47:15;100023.78;;;6.24;93.16
84764;BME280;74992;51.072;6.088;2024-02-26T12:50:18;100027.16;;;6.21;92.97
84764;BME280;74992;51.072;6.088;2024-02-26T12:53:21;100028.94;;;6.28;93.27
84764;BME280;74992;51.072;6.088;2024-02-26T12:56:23;100038.34;;;6.28;93.48
84764;BME280;74992;51.072;6.088;2024-02-26T12:59:25;100045.97;;;6.25;92.42
84764;BME280;74992;51.072;6.088;2024-02-26T13:02:27;100046.88;;;6.25;92.61
84764;BME280;74992;51.072;6.088;2024-02-26T13:05:29;100057.91;;;6.23;92.38
84764;BME280;74992;51.072;6.088;2024-02-26T13:08:32;100065.59;;;6.23;93.27
84764;BME280;74992;51.072;6.088;2024-02-26T13:11:33;100071.63;;;6.26;92.92
84764;BME280;74992;51.072;6.088;2024-02-26T13:14:35;100075.13;;;6.34;92.96
84764;BME280;74992;51.072;6.088;2024-02-26T13:17:36;100080.25;;;6.36;93.13
84764;BME280;74992;51.072;6.088;2024-02-26T13:20:38;100085.31;;;6.28;93.17
84764;BME280;74992;51.072;6.088;2024-02-26T13:23:42;100087.91;;;6.31;94.02
84764;BME280;74992;51.072;6.088;2024-02-26T13:26:46;100087.06;;;6.34;93.44
84764;BME280;74992;51.072;6.088;2024-02-26T13:29:47;100096.44;;;6.32;93.65
84764;BME280;74992;51.072;6.088;2024-02-26T13:32:49;100101.47;;;6.24;93.63
84764;BME280;74992;51.072;6.088;2024-02-26T13:35:51;100101.56;;;6.32;94.33
84764;BME280;74992;51.072;6.088;2024-02-26T13:38:53;100103.25;;;6.27;94.04
84764;BME280;74992;51.072;6.088;2024-02-26T13:41:55;100098.06;;;6.22;93.33
84764;BME280;74992;51.072;6.088;2024-02-26T13:44:57;100111.72;;;6.21;93.74
84764;BME280;74992;51.072;6.088;2024-02-26T13:48:02;100120.31;;;6.26;93.45
84764;BME280;74992;51.072;6.088;2024-02-26T13:51:04;100122.91;;;6.28;93.30
84764;BME280;74992;51.072;6.088;2024-02-26T13:54:06;100123.84;;;6.37;93.44
84764;BME280;74992;51.072;6.088;2024-02-26T13:57:07;100128.91;;;6.33;92.98
84764;BME280;74992;51.072;6.088;2024-02-26T14:00:10;100133.19;;;6.34;93.01
84764;BME280;74992;51.072;6.088;2024-02-26T14:03:11;100131.47;;;6.31;93.47
84764;BME280;74992;51.072;6.088;2024-02-26T14:06:13;100136.59;;;6.33;93.19
84764;BME280;74992;51.072;6.088;2024-02-26T14:09:14;100144.38;;;6.39;92.94
84764;BME280;74992;51.072;6.088;2024-02-26T14:12:18;100144.41;;;6.45;93.00
84764;BME280;74992;51.072;6.088;2024-02-26T14:15:20;100151.19;;;6.37;93.20
84764;BME280;74992;51.072;6.088;2024-02-26T14:18:21;100149.34;;;6.25;92.60
84764;BME280;74992;51.072;6.088;2024-02-26T14:21:23;100151.88;;;6.24;93.02
84764;BME280;74992;51.072;6.088;2024-02-26T14:24:25;100160.47;;;6.29;93.95
84764;BME280;74992;51.072;6.088;2024-02-26T14:27:26;100164.66;;;6.24;92.80
84764;BME280;74992;51.072;6.088;2024-02-26T14:30:28;100169.00;;;6.28;92.78
84764;BME280;74992;51.072;6.088;2024-02-26T14:33:31;100175.13;;;6.42;92.60
84764;BME280;74992;51.072;6.088;2024-02-26T14:36:32;100179.44;;;6.44;92.26
84764;BME280;74992;51.072;6.088;2024-02-26T14:39:34;100187.13;;;6.46;91.98
84764;BME280;74992;51.072;6.088;2024-02-26T14:42:35;100186.97;;;6.32;92.45
84764;BME280;74992;51.072;6.088;2024-02-26T14:45:37;100193.03;;;6.37;91.79
84764;BME280;74992;51.072;6.088;2024-02-26T14:48:39;100195.63;;;6.40;92.45
84764;BME280;74992;51.072;6.088;2024-02-26T14:51:40;100201.53;;;6.35;92.07
84764;BME280;74992;51.072;6.088;2024-02-26T14:54:42;100199.81;;;6.34;91.81
84764;BME280;74992;51.072;6.088;2024-02-26T14:57:44;100204.06;;;6.32;92.41
84764;BME280;74992;51.072;6.088;2024-02-26T15:00:45;100212.56;;;6.28;91.80
84764;BME280;74992;51.072;6.088;2024-02-26T15:03:47;100217.63;;;6.25;92.26
84764;BME280;74992;51.072;6.088;2024-02-26T15:06:48;100216.88;;;6.32;93.08
84764;BME280;74992;51.072;6.088;2024-02-26T15:09:50;100216.00;;;6.31;91.37
84764;BME280;74992;51.072;6.088;2024-02-26T15:12:56;100223.75;;;6.36;92.04
84764;BME280;74992;51.072;6.088;2024-02-26T15:15:58;100221.25;;;6.39;92.02
84764;BME280;74992;51.072;6.088;2024-02-26T15:18:59;100228.94;;;6.39;91.72
84764;BME280;74992;51.072;6.088;2024-02-26T15:22:02;100236.56;;;6.36;91.35
84764;BME280;74992;51.072;6.088;2024-02-26T15:25:04;100239.19;;;6.40;92.13
84764;BME280;74992;51.072;6.088;2024-02-26T15:28:06;100243.44;;;6.38;90.83
84764;BME280;74992;51.072;6.088;2024-02-26T15:31:07;100244.28;;;6.37;91.04
84764;BME280;74992;51.072;6.088;2024-02-26T15:34:09;100249.44;;;6.39;91.37
84764;BME280;74992;51.072;6.088;2024-02-26T15:37:10;100263.13;;;6.41;91.22
84764;BME280;74992;51.072;6.088;2024-02-26T15:40:12;100268.22;;;6.39;91.60
84764;BME280;74992;51.072;6.088;2024-02-26T15:43:13;100269.06;;;6.37;90.39
84764;BME280;74992;51.072;6.088;2024-02-26T15:46:15;100287.00;;;6.38;90.88
84764;BME280;74992;51.072;6.088;2024-02-26T15:49:17;100282.63;;;6.30;90.56
84764;BME280;74992;51.072;6.088;2024-02-26T15:52:18;100287.72;;;6.27;91.32
84764;BME280;74992;51.072;6.088;2024-02-26T15:55:20;100293.63;;;6.23;91.01
84764;BME280;74992;51.072;6.088;2024-02-26T15:58:21;100285.94;;;6.23;90.11
84764;BME280;74992;51.072;6.088;2024-02-26T16:01:24;100301.25;;;6.18;90.53
84764;BME280;74992;51.072;6.088;2024-02-26T16:04:25;100307.19;;;6.16;90.38
84764;BME280;74992;51.072;6.088;2024-02-26T16:07:39;100314.75;;;6.06;90.55
84764;BME280;74992;51.072;6.088;2024-02-26T16:10:44;100319.00;;;6.04;90.74
84764;BME280;74992;51.072;6.088;2024-02-26T16:13:46;100334.28;;;6.01;91.23
84764;BME280;74992;51.072;6.088;2024-02-26T16:16:54;100331.66;;;5.97;90.53